createdAt,value
2023-03-24T00:00:55.667Z,999.61
2023-03-24T00:01:55.662Z,999.58
2023-03-24T00:02:55.688Z,999.59
2023-03-24T00:03:55.809Z,999.55
2023-03-24T00:04:55.643Z,999.56
2023-03-24T00:05:55.611Z,999.55
2023-03-24T00:06:55.601Z,999.46
2023-03-24T00:07:55.593Z,999.49
2023-03-24T00:08:55.621Z,999.49
2023-03-24T00:09:55.586Z,999.48
2023-03-24T00:10:55.681Z,999.46
2023-03-24T00:11:55.593Z,999.42
2023-03-24T00:12:55.536Z,999.42
2023-03-24T00:13:55.522Z,999.37
2023-03-24T00:14:55.524Z,999.33
2023-03-24T00:16:05.056Z,999.34
2023-03-24T00:16:55.488Z,999.33
2023-03-24T00:17:55.520Z,999.34
2023-03-24T00:18:55.464Z,999.34
2023-03-24T00:19:55.490Z,999.40
2023-03-24T00:20:55.464Z,999.39
2023-03-24T00:21:55.435Z,999.40
2023-03-24T00:22:55.433Z,999.41
2023-03-24T00:23:55.505Z,999.41
2023-03-24T00:24:55.403Z,999.37
2023-03-24T00:25:55.410Z,999.31
2023-03-24T00:26:55.380Z,999.30
2023-03-24T00:27:55.369Z,999.29
2023-03-24T00:28:55.372Z,999.35
2023-03-24T00:29:55.347Z,999.33
2023-03-24T00:30:55.386Z,999.37
2023-03-24T00:31:55.325Z,999.29
2023-03-24T00:32:55.336Z,999.33
2023-03-24T00:33:55.331Z,999.31
2023-03-24T00:34:55.295Z,999.32
2023-03-24T00:35:55.313Z,999.31
2023-03-24T00:36:55.310Z,999.26
2023-03-24T00:37:55.275Z,999.19
2023-03-24T00:38:55.246Z,999.18
2023-03-24T00:39:55.237Z,999.20
2023-03-24T00:40:55.251Z,999.18
2023-03-24T00:41:55.225Z,999.19
2023-03-24T00:42:55.212Z,999.20
2023-03-24T00:43:55.203Z,999.16
2023-03-24T00:44:55.188Z,999.17
2023-03-24T00:45:55.228Z,999.16
2023-03-24T00:46:55.183Z,999.15
2023-03-24T00:47:55.167Z,999.13
2023-03-24T00:48:55.149Z,999.11
2023-03-24T00:49:55.137Z,999.08
2023-03-24T00:50:55.124Z,999.08
2023-03-24T00:51:55.112Z,999.11
2023-03-24T00:52:55.142Z,999.10
2023-03-24T00:53:55.093Z,999.07
2023-03-24T00:54:55.100Z,999.07
2023-03-24T00:55:55.099Z,999.04
2023-03-24T00:56:55.108Z,999.05
2023-03-24T00:57:55.074Z,999.04
2023-03-24T00:58:55.062Z,999.00
2023-03-24T00:59:55.024Z,999.01
2023-03-24T01:00:55.101Z,998.97
2023-03-24T01:01:55.050Z,998.96
2023-03-24T01:02:55.032Z,998.97
2023-03-24T01:03:54.977Z,998.96
2023-03-24T01:04:54.993Z,998.91
2023-03-24T01:05:54.962Z,998.90
2023-03-24T01:06:54.946Z,998.92
2023-03-24T01:07:54.936Z,998.93
2023-03-24T01:08:55.085Z,998.94
2023-03-24T01:09:54.925Z,998.93
2023-03-24T01:10:54.919Z,998.99
2023-03-24T01:11:54.898Z,998.93
2023-03-24T01:12:54.885Z,998.93
2023-03-24T01:13:54.888Z,998.92
2023-03-24T01:14:54.868Z,998.84
2023-03-24T01:15:54.878Z,998.82
2023-03-24T01:16:54.837Z,998.74
2023-03-24T01:17:54.898Z,998.77
2023-03-24T01:18:54.812Z,998.73
2023-03-24T01:19:54.819Z,998.73
2023-03-24T01:20:54.797Z,998.71
2023-03-24T01:21:54.787Z,998.68
2023-03-24T01:22:54.768Z,998.62
2023-03-24T01:23:54.776Z,998.58
2023-03-24T01:24:54.879Z,998.55
2023-03-24T01:25:54.745Z,998.55
2023-03-24T01:26:54.720Z,998.50
2023-03-24T01:27:54.717Z,998.44
2023-03-24T01:28:54.702Z,998.50
2023-03-24T01:29:54.721Z,998.50
2023-03-24T01:30:54.693Z,998.47
2023-03-24T01:31:54.716Z,998.50
2023-03-24T01:32:54.689Z,998.45
2023-03-24T01:33:54.652Z,998.44
2023-03-24T01:34:54.642Z,998.40
2023-03-24T01:35:54.679Z,998.36
2023-03-24T01:36:54.615Z,998.30
2023-03-24T01:37:54.610Z,998.29
2023-03-24T01:38:54.596Z,998.32
2023-03-24T01:39:54.592Z,998.25
2023-03-24T01:40:54.589Z,998.26
2023-03-24T01:41:54.586Z,998.28
2023-03-24T01:42:54.550Z,998.19
2023-03-24T01:43:54.537Z,998.14
2023-03-24T01:44:54.530Z,998.10
2023-03-24T01:45:54.564Z,998.04
2023-03-24T01:46:54.523Z,998.02
2023-03-24T01:47:54.556Z,998.03
2023-03-24T01:48:54.488Z,998.02
2023-03-24T01:49:54.476Z,998.06
2023-03-24T01:50:54.464Z,998.03
2023-03-24T01:51:54.478Z,998.10
2023-03-24T01:52:54.442Z,998.10
2023-03-24T01:53:54.432Z,998.18
2023-03-24T01:54:54.430Z,998.13
2023-03-24T01:55:54.420Z,998.10
2023-03-24T01:56:54.444Z,998.10
2023-03-24T01:57:54.414Z,998.09
2023-03-24T01:58:54.379Z,998.06
2023-03-24T01:59:54.366Z,998.06
2023-03-24T02:00:54.393Z,998.03
2023-03-24T02:01:54.352Z,997.99
2023-03-24T02:02:54.384Z,998.00
2023-03-24T02:03:54.333Z,997.95
2023-03-24T02:04:54.341Z,997.96
2023-03-24T02:05:54.307Z,997.93
2023-03-24T02:06:54.292Z,997.90
2023-03-24T02:07:54.293Z,997.88
2023-03-24T02:08:54.272Z,997.85
2023-03-24T02:09:54.259Z,997.82
2023-03-24T02:10:54.247Z,997.78
2023-03-24T02:11:54.253Z,997.78
2023-03-24T02:12:54.260Z,997.73
2023-03-24T02:13:54.228Z,997.74
2023-03-24T02:14:54.202Z,997.74
2023-03-24T02:15:54.251Z,997.74
2023-03-24T02:16:54.184Z,997.69
2023-03-24T02:17:54.315Z,997.71
2023-03-24T02:18:54.164Z,997.73
2023-03-24T02:19:54.160Z,997.74
2023-03-24T02:20:54.143Z,997.70
2023-03-24T02:21:54.132Z,997.68
2023-03-24T02:22:54.128Z,997.64
2023-03-24T02:23:54.142Z,997.64
2023-03-24T02:24:54.098Z,997.65
2023-03-24T02:25:54.089Z,997.58
2023-03-24T02:26:54.074Z,997.59
2023-03-24T02:27:54.069Z,997.57
2023-03-24T02:28:54.093Z,997.53
2023-03-24T02:29:54.103Z,997.50
2023-03-24T02:30:54.030Z,997.47
2023-03-24T02:31:54.052Z,997.46
2023-03-24T02:32:54.162Z,997.41
2023-03-24T02:33:53.998Z,997.50
2023-03-24T02:34:54.000Z,997.52
2023-03-24T02:35:53.989Z,997.47
2023-03-24T02:36:53.965Z,997.41
2023-03-24T02:37:53.964Z,997.44
2023-03-24T02:38:53.945Z,997.38
2023-03-24T02:39:53.962Z,997.36
2023-03-24T02:40:53.937Z,997.36
2023-03-24T02:41:53.922Z,997.36
2023-03-24T02:42:53.916Z,997.36
2023-03-24T02:43:53.902Z,997.41
2023-03-24T02:44:53.900Z,997.44
2023-03-24T02:45:53.907Z,997.39
2023-03-24T02:46:53.852Z,997.40
2023-03-24T02:47:53.900Z,997.41
2023-03-24T02:48:53.838Z,997.48
2023-03-24T02:49:53.825Z,997.50
2023-03-24T02:50:53.819Z,997.46
2023-03-24T02:51:53.814Z,997.47
2023-03-24T02:52:53.793Z,997.53
2023-03-24T02:53:53.790Z,997.49
2023-03-24T02:54:53.763Z,997.46
2023-03-24T02:55:53.750Z,997.43
2023-03-24T02:56:53.817Z,997.43
2023-03-24T02:57:53.737Z,997.43
2023-03-24T02:58:53.742Z,997.39
2023-03-24T02:59:53.718Z,997.37
2023-03-24T03:00:53.724Z,997.42
2023-03-24T03:01:53.789Z,997.39
2023-03-24T03:02:53.703Z,997.31
2023-03-24T03:03:53.729Z,997.38
2023-03-24T03:04:53.675Z,997.28
2023-03-24T03:05:53.645Z,997.28
2023-03-24T03:06:53.632Z,997.24
2023-03-24T03:07:53.622Z,997.26
2023-03-24T03:08:53.612Z,997.21
2023-03-24T03:09:53.623Z,997.20
2023-03-24T03:10:53.591Z,997.12
2023-03-24T03:11:53.597Z,997.14
2023-03-24T03:12:53.572Z,997.12
2023-03-24T03:13:53.602Z,997.17
2023-03-24T03:14:53.545Z,997.15
2023-03-24T03:15:53.562Z,997.12
2023-03-24T03:16:53.646Z,997.10
2023-03-24T03:17:53.532Z,997.09
2023-03-24T03:18:53.500Z,997.08
2023-03-24T03:19:53.504Z,997.07
2023-03-24T03:20:53.502Z,997.03
2023-03-24T03:21:53.470Z,997.01
2023-03-24T03:22:53.491Z,997.03
2023-03-24T03:23:53.448Z,997.01
2023-03-24T03:24:53.461Z,997.11
2023-03-24T03:25:53.437Z,997.07
2023-03-24T03:26:53.419Z,997.04
2023-03-24T03:27:53.407Z,996.92
2023-03-24T03:28:53.397Z,997.01
2023-03-24T03:29:53.395Z,996.96
2023-03-24T03:30:53.432Z,996.90
2023-03-24T03:31:53.364Z,996.93
2023-03-24T03:32:53.468Z,996.88
2023-03-24T03:33:53.346Z,996.86
2023-03-24T03:34:53.354Z,996.82
2023-03-24T03:35:53.379Z,996.80
2023-03-24T03:36:53.316Z,996.81
2023-03-24T03:37:53.323Z,996.81
2023-03-24T03:38:53.291Z,996.76
2023-03-24T03:39:53.298Z,996.78
2023-03-24T03:40:53.278Z,996.77
2023-03-24T03:41:53.260Z,996.73
2023-03-24T03:42:53.302Z,996.76
2023-03-24T03:43:53.270Z,996.68
2023-03-24T03:44:53.230Z,996.69
2023-03-24T03:45:53.259Z,996.68
2023-03-24T03:46:53.215Z,996.69
2023-03-24T03:47:53.249Z,996.66
2023-03-24T03:48:53.205Z,996.64
2023-03-24T03:49:53.170Z,996.65
2023-03-24T03:50:59.893Z,996.58
2023-03-24T03:51:54.218Z,996.58
2023-03-24T03:52:53.143Z,996.56
2023-03-24T03:53:53.138Z,996.54
2023-03-24T03:54:53.126Z,996.57
2023-03-24T03:55:53.110Z,996.56
2023-03-24T03:56:53.118Z,996.56
2023-03-24T03:57:53.102Z,996.55
2023-03-24T03:58:53.070Z,996.53
2023-03-24T03:59:53.064Z,996.60
2023-03-24T04:00:53.054Z,996.57
2023-03-24T04:01:53.111Z,996.52
2023-03-24T04:02:53.239Z,996.53
2023-03-24T04:03:53.091Z,996.53
2023-03-24T04:05:03.216Z,996.52
2023-03-24T04:05:53.999Z,996.44
2023-03-24T04:06:52.985Z,996.50
2023-03-24T04:07:52.989Z,996.48
2023-03-24T04:08:52.983Z,996.46
2023-03-24T04:09:52.955Z,996.42
2023-03-24T04:10:52.943Z,996.37
2023-03-24T04:11:52.939Z,996.32
2023-03-24T04:12:52.922Z,996.33
2023-03-24T04:13:52.936Z,996.33
2023-03-24T04:14:52.899Z,996.32
2023-03-24T04:15:52.922Z,996.33
2023-03-24T04:16:52.875Z,996.31
2023-03-24T04:17:52.933Z,996.27
2023-03-24T04:18:52.873Z,996.23
2023-03-24T04:19:52.860Z,996.22
2023-03-24T04:20:52.870Z,996.31
2023-03-24T04:21:52.821Z,996.17
2023-03-24T04:22:52.817Z,996.17
2023-03-24T04:23:52.823Z,996.10
2023-03-24T04:24:52.789Z,996.19
2023-03-24T04:25:52.779Z,996.22
2023-03-24T04:26:52.772Z,996.19
2023-03-24T04:27:52.758Z,996.13
2023-03-24T04:28:52.746Z,996.14
2023-03-24T04:29:52.758Z,996.12
2023-03-24T04:30:52.732Z,996.07
2023-03-24T04:31:52.908Z,996.12
2023-03-24T04:32:52.742Z,996.01
2023-03-24T04:33:52.692Z,995.99
2023-03-24T04:34:52.690Z,995.98
2023-03-24T04:35:52.708Z,996.00
2023-03-24T04:36:52.676Z,995.94
2023-03-24T04:37:52.652Z,995.92
2023-03-24T04:38:52.646Z,995.88
2023-03-24T04:39:52.622Z,995.90
2023-03-24T04:40:52.637Z,995.87
2023-03-24T04:41:52.618Z,995.88
2023-03-24T04:42:52.729Z,995.78
2023-03-24T04:43:52.587Z,995.90
2023-03-24T04:44:52.568Z,995.83
2023-03-24T04:45:52.580Z,995.85
2023-03-24T04:46:52.569Z,995.83
2023-03-24T04:47:52.609Z,995.89
2023-03-24T04:48:52.533Z,995.93
2023-03-24T04:49:52.525Z,995.82
2023-03-24T04:50:52.497Z,995.85
2023-03-24T04:51:52.503Z,995.80
2023-03-24T04:52:52.514Z,995.81
2023-03-24T04:53:52.471Z,995.80
2023-03-24T04:54:52.459Z,995.84
2023-03-24T04:55:52.449Z,995.80
2023-03-24T04:56:52.510Z,995.85
2023-03-24T04:57:52.449Z,995.77
2023-03-24T04:58:52.420Z,995.72
2023-03-24T04:59:52.407Z,995.78
2023-03-24T05:00:52.419Z,995.71
2023-03-24T05:01:52.393Z,995.74
2023-03-24T05:02:52.429Z,995.73
2023-03-24T05:03:52.411Z,995.73
2023-03-24T05:04:52.341Z,995.72
2023-03-24T05:05:52.339Z,995.69
2023-03-24T05:06:52.337Z,995.68
2023-03-24T05:07:52.313Z,995.67
2023-03-24T05:08:52.350Z,995.71
2023-03-24T05:09:52.319Z,995.70
2023-03-24T05:10:52.280Z,995.65
2023-03-24T05:11:52.275Z,995.61
2023-03-24T05:12:52.265Z,995.64
2023-03-24T05:13:52.250Z,995.58
2023-03-24T05:14:52.262Z,995.59
2023-03-24T05:15:52.237Z,995.61
2023-03-24T05:16:52.319Z,995.63
2023-03-24T05:17:52.226Z,995.69
2023-03-24T05:18:52.200Z,995.74
2023-03-24T05:19:52.208Z,995.70
2023-03-24T05:20:52.167Z,995.68
2023-03-24T05:21:52.160Z,995.68
2023-03-24T05:22:52.158Z,995.62
2023-03-24T05:23:52.145Z,995.55
2023-03-24T05:24:52.168Z,995.63
2023-03-24T05:25:52.138Z,995.62
2023-03-24T05:26:52.100Z,995.57
2023-03-24T05:27:52.093Z,995.57
2023-03-24T05:28:52.094Z,995.63
2023-03-24T05:29:52.071Z,995.59
2023-03-24T05:30:52.097Z,995.57
2023-03-24T05:31:52.063Z,995.54
2023-03-24T05:32:52.093Z,995.56
2023-03-24T05:33:52.045Z,995.60
2023-03-24T05:34:52.021Z,995.60
2023-03-24T05:35:52.055Z,995.51
2023-03-24T05:36:51.999Z,995.64
2023-03-24T05:37:51.988Z,995.63
2023-03-24T05:38:52.002Z,995.60
2023-03-24T05:39:53.654Z,995.65
2023-03-24T05:40:51.976Z,995.55
2023-03-24T05:41:51.937Z,995.66
2023-03-24T05:42:51.975Z,995.60
2023-03-24T05:43:51.912Z,995.57
2023-03-24T05:44:51.928Z,995.58
2023-03-24T05:45:51.952Z,995.54
2023-03-24T05:46:51.884Z,995.58
2023-03-24T05:47:51.950Z,995.59
2023-03-24T05:48:51.867Z,995.56
2023-03-24T05:49:51.884Z,995.54
2023-03-24T05:50:51.837Z,995.47
2023-03-24T05:51:51.833Z,995.45
2023-03-24T05:52:51.826Z,995.53
2023-03-24T05:53:51.815Z,995.48
2023-03-24T05:54:51.799Z,995.46
2023-03-24T05:55:51.831Z,995.51
2023-03-24T05:56:51.853Z,995.47
2023-03-24T05:57:51.773Z,995.54
2023-03-24T05:58:51.780Z,995.42
2023-03-24T05:59:51.745Z,995.52
2023-03-24T06:00:51.787Z,995.47
2023-03-24T06:01:51.747Z,995.42
2023-03-24T06:02:51.797Z,995.38
2023-03-24T06:03:51.835Z,995.50
2023-03-24T06:04:51.719Z,995.47
2023-03-24T06:05:51.680Z,995.50
2023-03-24T06:06:51.670Z,995.48
2023-03-24T06:07:51.677Z,995.37
2023-03-24T06:08:51.645Z,995.34
2023-03-24T06:09:51.638Z,995.33
2023-03-24T06:10:51.621Z,995.35
2023-03-24T06:11:51.623Z,995.35
2023-03-24T06:12:51.637Z,995.30
2023-03-24T06:13:51.594Z,995.29
2023-03-24T06:14:51.578Z,995.30
2023-03-24T06:15:51.625Z,995.38
2023-03-24T06:16:51.562Z,995.37
2023-03-24T06:17:51.629Z,995.50
2023-03-24T06:18:51.535Z,995.35
2023-03-24T06:19:51.519Z,995.26
2023-03-24T06:20:51.519Z,995.30
2023-03-24T06:21:51.517Z,995.25
2023-03-24T06:22:51.505Z,995.16
2023-03-24T06:23:51.480Z,995.10
2023-03-24T06:24:51.492Z,995.19
2023-03-24T06:25:51.475Z,995.12
2023-03-24T06:26:51.445Z,995.12
2023-03-24T06:27:51.454Z,995.10
2023-03-24T06:28:51.442Z,995.08
2023-03-24T06:29:51.410Z,995.10
2023-03-24T06:30:51.442Z,995.08
2023-03-24T06:31:51.389Z,994.99
2023-03-24T06:32:51.440Z,995.00
2023-03-24T06:33:51.388Z,995.07
2023-03-24T06:34:51.355Z,995.00
2023-03-24T06:35:51.387Z,995.02
2023-03-24T06:36:51.341Z,995.06
2023-03-24T06:37:51.328Z,995.09
2023-03-24T06:38:51.378Z,995.02
2023-03-24T06:39:51.313Z,995.03
2023-03-24T06:40:51.317Z,995.12
2023-03-24T06:41:51.277Z,995.05
2023-03-24T06:42:51.265Z,995.06
2023-03-24T06:43:51.269Z,995.05
2023-03-24T06:44:51.279Z,995.01
2023-03-24T06:45:51.253Z,995.06
2023-03-24T06:46:51.238Z,995.05
2023-03-24T06:47:51.270Z,995.02
2023-03-24T06:48:51.203Z,995.01
2023-03-24T06:49:51.205Z,995.08
2023-03-24T06:50:51.186Z,994.98
2023-03-24T06:51:51.194Z,995.04
2023-03-24T06:52:51.153Z,995.02
2023-03-24T06:53:51.143Z,994.92
2023-03-24T06:54:51.143Z,994.98
2023-03-24T06:55:51.135Z,995.01
2023-03-24T06:56:51.141Z,995.01
2023-03-24T06:57:51.130Z,995.00
2023-03-24T06:58:51.094Z,994.94
2023-03-24T06:59:51.085Z,994.93
2023-03-24T07:00:51.093Z,994.96
2023-03-24T07:01:51.165Z,994.95
2023-03-24T07:02:51.156Z,994.93
2023-03-24T07:03:51.151Z,994.96
2023-03-24T07:04:51.023Z,994.91
2023-03-24T07:05:51.017Z,994.86
2023-03-24T07:07:06.495Z,994.89
2023-03-24T07:08:27.946Z,994.81
2023-03-24T07:08:52.022Z,994.87
2023-03-24T07:09:51.252Z,994.79
2023-03-24T07:10:50.977Z,994.78
2023-03-24T07:11:50.944Z,994.81
2023-03-24T07:12:50.976Z,994.70
2023-03-24T07:13:50.970Z,994.68
2023-03-24T07:14:50.926Z,994.63
2023-03-24T07:15:50.958Z,994.70
2023-03-24T07:16:50.991Z,994.76
2023-03-24T07:17:50.934Z,994.69
2023-03-24T07:18:50.872Z,994.64
2023-03-24T07:19:50.874Z,994.63
2023-03-24T07:20:50.864Z,994.62
2023-03-24T07:21:50.824Z,994.66
2023-03-24T07:22:50.834Z,994.64
2023-03-24T07:23:50.814Z,994.60
2023-03-24T07:24:52.816Z,994.63
2023-03-24T07:25:50.814Z,994.55
2023-03-24T07:26:50.775Z,994.56
2023-03-24T07:27:50.771Z,994.61
2023-03-24T07:28:50.779Z,994.60
2023-03-24T07:29:50.745Z,994.54
2023-03-24T07:30:52.137Z,994.53
2023-03-24T07:31:50.800Z,994.60
2023-03-24T07:32:50.782Z,994.54
2023-03-24T07:33:50.718Z,994.53
2023-03-24T07:34:50.691Z,994.51
2023-03-24T07:35:50.694Z,994.46
2023-03-24T07:36:50.680Z,994.48
2023-03-24T07:37:50.663Z,994.46
2023-03-24T07:38:50.679Z,994.54
2023-03-24T07:39:50.652Z,994.62
2023-03-24T07:40:50.645Z,994.51
2023-03-24T07:41:50.617Z,994.48
2023-03-24T07:42:50.621Z,994.48
2023-03-24T07:43:50.594Z,994.51
2023-03-24T07:44:50.576Z,994.49
2023-03-24T07:45:50.636Z,994.49
2023-03-24T07:46:50.561Z,994.58
2023-03-24T07:47:50.549Z,994.55
2023-03-24T07:48:50.604Z,994.52
2023-03-24T07:49:50.526Z,994.58
2023-03-24T07:50:50.560Z,994.54
2023-03-24T07:51:50.522Z,994.48
2023-03-24T07:52:50.506Z,994.49
2023-03-24T07:53:50.521Z,994.56
2023-03-24T07:54:50.469Z,994.53
2023-03-24T07:55:50.674Z,994.66
2023-03-24T07:56:50.491Z,994.58
2023-03-24T07:57:50.442Z,994.47
2023-03-24T07:58:50.457Z,994.61
2023-03-24T07:59:50.467Z,994.59
2023-03-24T08:00:50.769Z,994.62
2023-03-24T08:01:54.875Z,994.55
2023-03-24T08:02:50.587Z,994.85
2023-03-24T08:03:52.337Z,994.52
2023-03-24T08:04:50.380Z,994.60
2023-03-24T08:05:50.685Z,994.55
2023-03-24T08:06:50.365Z,994.51
2023-03-24T08:07:50.354Z,994.44
2023-03-24T08:08:50.317Z,994.51
2023-03-24T08:09:50.316Z,994.43
2023-03-24T08:10:50.308Z,994.42
2023-03-24T08:11:50.334Z,994.54
2023-03-24T08:12:50.288Z,994.46
2023-03-24T08:13:50.303Z,994.43
2023-03-24T08:14:50.266Z,994.58
2023-03-24T08:15:50.253Z,994.50
2023-03-24T08:16:50.248Z,994.53
2023-03-24T08:17:50.294Z,994.46
2023-03-24T08:18:50.231Z,994.39
2023-03-24T08:19:59.469Z,994.47
2023-03-24T08:20:51.261Z,994.52
2023-03-24T08:21:50.176Z,994.55
2023-03-24T08:22:50.288Z,994.55
2023-03-24T08:23:50.163Z,994.74
2023-03-24T08:24:50.144Z,994.62
2023-03-24T08:25:50.298Z,994.56
2023-03-24T08:26:50.132Z,994.52
2023-03-24T08:27:50.118Z,994.51
2023-03-24T08:28:50.103Z,994.52
2023-03-24T08:29:50.089Z,994.53
2023-03-24T08:30:50.519Z,994.54
2023-03-24T08:31:50.085Z,994.50
2023-03-24T08:32:50.224Z,994.53
2023-03-24T08:33:50.044Z,994.43
2023-03-24T08:34:50.034Z,994.39
2023-03-24T08:35:50.218Z,994.45
2023-03-24T08:36:50.062Z,994.47
2023-03-24T08:37:50.011Z,994.38
2023-03-24T08:38:50.024Z,994.39
2023-03-24T08:39:49.978Z,994.33
2023-03-24T08:40:49.978Z,994.33
2023-03-24T08:41:49.962Z,994.31
2023-03-24T08:42:49.981Z,994.29
2023-03-24T08:43:50.008Z,994.35
2023-03-24T08:44:49.920Z,994.40
2023-03-24T08:45:50.267Z,994.54
2023-03-24T08:46:49.943Z,994.51
2023-03-24T08:47:49.894Z,994.66
2023-03-24T08:48:49.890Z,994.48
2023-03-24T08:49:49.882Z,994.49
2023-03-24T08:50:49.860Z,994.37
2023-03-24T08:51:49.868Z,994.32
2023-03-24T08:52:49.844Z,994.40
2023-03-24T08:53:49.816Z,994.31
2023-03-24T08:54:49.819Z,994.33
2023-03-24T08:55:49.933Z,994.49
2023-03-24T08:56:49.861Z,994.60
2023-03-24T08:57:49.794Z,994.45
2023-03-24T08:58:49.777Z,994.54
2023-03-24T08:59:51.342Z,994.51
2023-03-24T09:00:49.738Z,994.39
2023-03-24T09:01:49.780Z,994.40
2023-03-24T09:02:49.772Z,994.46
2023-03-24T09:03:49.701Z,994.46
2023-03-24T09:04:49.739Z,994.51
2023-03-24T09:05:49.682Z,994.48
2023-03-24T09:06:49.686Z,994.52
2023-03-24T09:07:49.670Z,994.53
2023-03-24T09:08:49.690Z,994.52
2023-03-24T09:09:49.672Z,994.60
2023-03-24T09:10:49.630Z,994.67
2023-03-24T09:11:49.622Z,994.58
2023-03-24T09:12:49.666Z,994.62
2023-03-24T09:13:49.630Z,994.76
2023-03-24T09:14:49.589Z,994.77
2023-03-24T09:15:49.994Z,994.63
2023-03-24T09:16:49.570Z,994.56
2023-03-24T09:17:49.599Z,994.54
2023-03-24T09:18:49.555Z,994.57
2023-03-24T09:19:49.547Z,994.64
2023-03-24T09:20:49.892Z,994.70
2023-03-24T09:21:49.514Z,994.66
2023-03-24T09:22:49.566Z,994.74
2023-03-24T09:23:49.501Z,994.75
2023-03-24T09:24:49.564Z,994.62
2023-03-24T09:25:49.654Z,994.74
2023-03-24T09:26:49.475Z,994.65
2023-03-24T09:27:49.468Z,994.69
2023-03-24T09:28:49.448Z,994.69
2023-03-24T09:29:49.419Z,994.74
2023-03-24T09:30:49.714Z,994.86
2023-03-24T09:31:49.471Z,994.71
2023-03-24T09:32:49.422Z,994.81
2023-03-24T09:33:49.384Z,994.76
2023-03-24T09:34:49.360Z,994.78
2023-03-24T09:35:49.424Z,994.78
2023-03-24T09:36:49.337Z,994.83
2023-03-24T09:37:49.334Z,994.86
2023-03-24T09:38:49.317Z,994.80
2023-03-24T09:39:49.314Z,994.83
2023-03-24T09:40:49.533Z,994.80
2023-03-24T09:41:49.307Z,994.86
2023-03-24T09:42:49.275Z,994.86
2023-03-24T09:43:49.294Z,994.76
2023-03-24T09:44:50.553Z,994.72
2023-03-24T09:45:49.456Z,994.89
2023-03-24T09:46:49.275Z,994.80
2023-03-24T09:47:49.315Z,994.76
2023-03-24T09:48:49.233Z,994.75
2023-03-24T09:49:49.203Z,994.75
2023-03-24T09:50:49.227Z,994.87
2023-03-24T09:51:49.211Z,994.90
2023-03-24T09:52:49.184Z,994.89
2023-03-24T09:53:49.184Z,994.86
2023-03-24T09:54:49.152Z,994.76
2023-03-24T09:55:49.369Z,994.86
2023-03-24T09:56:51.291Z,994.83
2023-03-24T09:57:49.141Z,994.86
2023-03-24T09:58:49.100Z,994.83
2023-03-24T09:59:49.089Z,994.94
2023-03-24T10:00:49.285Z,994.85
2023-03-24T10:01:49.076Z,994.84
2023-03-24T10:02:51.172Z,994.87
2023-03-24T10:03:49.108Z,994.93
2023-03-24T10:04:49.047Z,994.87
2023-03-24T10:05:49.131Z,994.93
2023-03-24T10:06:49.026Z,995.01
2023-03-24T10:07:49.011Z,994.89
2023-03-24T10:08:49.039Z,995.15
2023-03-24T10:09:49.011Z,994.89
2023-03-24T10:10:49.059Z,994.88
2023-03-24T10:11:48.981Z,994.95
2023-03-24T10:12:48.981Z,994.90
2023-03-24T10:13:48.970Z,994.85
2023-03-24T10:14:48.946Z,994.90
2023-03-24T10:15:48.970Z,994.81
2023-03-24T10:16:48.985Z,994.92
2023-03-24T10:17:48.937Z,994.95
2023-03-24T10:18:48.877Z,994.95
2023-03-24T10:19:48.872Z,994.99
2023-03-24T10:20:48.867Z,994.96
2023-03-24T10:21:49.746Z,994.89
2023-03-24T10:22:48.847Z,995.04
2023-03-24T10:23:48.828Z,994.94
2023-03-24T10:24:48.838Z,995.07
2023-03-24T10:25:49.071Z,994.97
2023-03-24T10:26:49.689Z,994.92
2023-03-24T10:27:48.816Z,994.97
2023-03-24T10:28:50.359Z,994.99
2023-03-24T10:29:48.785Z,994.88
2023-03-24T10:30:49.483Z,994.89
2023-03-24T10:31:49.720Z,994.92
2023-03-24T10:32:48.842Z,994.86
2023-03-24T10:33:48.743Z,994.75
2023-03-24T10:34:48.756Z,994.80
2023-03-24T10:35:48.826Z,994.91
2023-03-24T10:36:52.071Z,994.82
2023-03-24T10:37:58.215Z,994.93
2023-03-24T10:38:48.702Z,995.03
2023-03-24T10:39:48.733Z,994.90
2023-03-24T10:40:48.664Z,994.93
2023-03-24T10:41:48.640Z,994.86
2023-03-24T10:43:07.183Z,994.93
2023-03-24T10:43:49.625Z,994.90
2023-03-24T10:44:48.650Z,994.93
2023-03-24T10:45:48.748Z,995.01
2023-03-24T10:46:48.605Z,994.94
2023-03-24T10:47:48.746Z,994.91
2023-03-24T10:48:48.640Z,994.90
2023-03-24T10:49:48.632Z,994.93
2023-03-24T10:50:48.586Z,994.83
2023-03-24T10:51:48.537Z,994.79
2023-03-24T10:52:49.355Z,994.79
2023-03-24T10:53:48.810Z,994.83
2023-03-24T10:54:48.538Z,994.88
2023-03-24T10:55:48.837Z,994.94
2023-03-24T10:56:48.529Z,994.93
2023-03-24T10:57:48.478Z,995.03
2023-03-24T10:58:48.465Z,994.95
2023-03-24T10:59:48.451Z,994.90
2023-03-24T11:00:48.548Z,994.99
2023-03-24T11:01:48.504Z,994.92
2023-03-24T11:02:48.448Z,994.93
2023-03-24T11:03:48.403Z,995.04
2023-03-24T11:04:48.387Z,995.04
2023-03-24T11:05:48.553Z,994.93
2023-03-24T11:06:48.385Z,994.97
2023-03-24T11:07:48.355Z,994.97
2023-03-24T11:08:48.338Z,994.96
2023-03-24T11:09:48.336Z,995.04
2023-03-24T11:10:48.340Z,995.09
2023-03-24T11:11:48.319Z,994.93
2023-03-24T11:12:48.299Z,995.10
2023-03-24T11:13:48.283Z,995.11
2023-03-24T11:14:48.270Z,994.96
2023-03-24T11:15:48.389Z,995.01
2023-03-24T11:16:48.322Z,994.99
2023-03-24T11:17:48.254Z,995.08
2023-03-24T11:18:48.246Z,995.09
2023-03-24T11:19:48.272Z,995.07
2023-03-24T11:20:48.236Z,995.10
2023-03-24T11:21:48.208Z,995.04
2023-03-24T11:22:48.202Z,995.05
2023-03-24T11:23:48.198Z,995.03
2023-03-24T11:24:48.204Z,995.01
2023-03-24T11:25:48.365Z,994.98
2023-03-24T11:26:48.244Z,995.03
2023-03-24T11:27:48.142Z,995.05
2023-03-24T11:28:48.134Z,994.99
2023-03-24T11:29:48.108Z,995.06
2023-03-24T11:30:48.148Z,995.11
2023-03-24T11:31:48.084Z,995.07
2023-03-24T11:32:48.134Z,994.97
2023-03-24T11:33:48.077Z,994.99
2023-03-24T11:34:48.289Z,994.98
2023-03-24T11:36:48.106Z,994.92
2023-03-24T11:37:48.025Z,994.96
2023-03-24T11:38:48.021Z,995.04
2023-03-24T11:39:48.003Z,995.06
2023-03-24T11:40:48.052Z,995.08
2023-03-24T11:41:47.975Z,995.02
2023-03-24T11:42:48.012Z,995.03
2023-03-24T11:43:47.950Z,994.89
2023-03-24T11:44:47.950Z,995.04
2023-03-24T11:45:48.196Z,995.04
2023-03-24T11:46:47.986Z,995.02
2023-03-24T11:47:47.958Z,995.14
2023-03-24T11:48:47.985Z,995.07
2023-03-24T11:49:47.892Z,995.10
2023-03-24T11:50:47.894Z,995.10
2023-03-24T11:51:47.881Z,995.09
2023-03-24T11:52:48.726Z,995.21
2023-03-24T11:53:47.961Z,995.15
2023-03-24T11:54:47.866Z,995.18
2023-03-24T11:55:48.061Z,995.19
2023-03-24T11:56:47.832Z,995.22
2023-03-24T11:57:47.816Z,995.30
2023-03-24T11:58:47.886Z,995.27
2023-03-24T11:59:47.874Z,995.20
2023-03-24T12:00:47.777Z,995.38
2023-03-24T12:01:47.830Z,995.41
2023-03-24T12:02:47.899Z,995.36
2023-03-24T12:03:47.933Z,995.33
2023-03-24T12:04:47.768Z,995.30
2023-03-24T12:05:50.385Z,995.33
2023-03-24T12:06:47.703Z,995.24
2023-03-24T12:07:47.707Z,995.15
2023-03-24T12:08:48.234Z,995.14
2023-03-24T12:09:47.739Z,995.27
2023-03-24T12:10:47.686Z,995.18
2023-03-24T12:11:47.679Z,994.96
2023-03-24T12:12:47.651Z,995.01
2023-03-24T12:13:47.682Z,994.94
2023-03-24T12:14:47.620Z,994.96
2023-03-24T12:15:47.857Z,994.91
2023-03-24T12:16:47.685Z,995.06
2023-03-24T12:17:47.616Z,995.13
2023-03-24T12:18:47.588Z,995.11
2023-03-24T12:19:47.582Z,995.12
2023-03-24T12:20:47.635Z,995.12
2023-03-24T12:21:48.465Z,995.09
2023-03-24T12:22:47.657Z,995.21
2023-03-24T12:23:47.569Z,995.10
2023-03-24T12:24:47.513Z,995.13
2023-03-24T12:25:47.754Z,995.09
2023-03-24T12:26:47.701Z,995.04
2023-03-24T12:27:47.524Z,995.17
2023-03-24T12:28:47.581Z,995.14
2023-03-24T12:29:47.453Z,995.13